Time,TemperatureF,DewpointF,PressureIn,WindDirection,WindDirectionDegrees,WindSpeedMPH,WindSpeedGustMPH,Humidity,HourlyPrecipIn,Conditions,Clouds,dailyrainin,SoftwareType,DateUTC
2013-04-20 00:00:00,46.8,46.8,19.99,West,275,14.0,30.0,100,0.00,,---,0.00,VWS V13.00,2013-04-20 04:00:00,
2013-04-20 00:30:00,44.1,44.1,20.00,West,267,17.0,31.0,100,0.00,,---,0.00,VWS V13.00,2013-04-20 04:30:00,
2013-04-20 01:00:00,42.1,42.1,19.99,SW,223,2.0,35.0,100,0.00,,---,0.00,VWS V13.00,2013-04-20 05:00:00,
2013-04-20 01:30:00,42.1,42.1,19.99,WSW,255,0.0,12.0,100,0.00,,---,0.00,VWS V13.00,2013-04-20 05:30:00,
2013-04-20 02:00:00,41.2,41.2,20.00,NE,48,3.0,12.0,100,0.00,,---,0.00,VWS V13.00,2013-04-20 06:00:00,
2013-04-20 02:30:00,40.1,40.1,19.99,North,359,9.0,12.0,100,0.00,,---,0.00,VWS V13.00,2013-04-20 06:30:00,
2013-04-20 03:00:00,39.5,39.5,19.99,North,0,5.0,16.0,100,0.00,,---,0.00,VWS V13.00,2013-04-20 07:00:00,
2013-04-20 03:30:00,38.4,38.4,19.99,North,357,5.0,10.0,100,0.00,,---,0.00,VWS V13.00,2013-04-20 07:30:00,
2013-04-20 04:00:00,37.7,37.7,20.00,WNW,300,4.0,10.0,100,0.00,,---,0.00,VWS V13.00,2013-04-20 08:00:00,
2013-04-20 05:30:00,36.3,36.3,19.99,North,0,3.0,10.0,100,0.00,,---,0.00,VWS V13.00,2013-04-20 09:30:00,
2013-04-20 06:00:00,36.2,36.2,19.99,West,263,15.0,16.0,100,0.00,,---,0.00,VWS V13.00,2013-04-20 10:00:00,
2013-04-20 06:30:00,36.2,36.2,19.99,West,278,5.0,15.0,100,0.00,,---,0.00,VWS V13.00,2013-04-20 10:30:00,
2013-04-20 07:00:00,36.3,36.3,20.00,WNW,298,5.0,17.0,100,0.00,,---,0.00,VWS V13.00,2013-04-20 11:00:00,
2013-04-20 07:30:00,36.7,36.7,19.99,West,264,2.0,17.0,100,0.00,,---,0.00,VWS V13.00,2013-04-20 11:30:00,
2013-04-20 08:00:00,37.2,37.2,20.00,WNW,294,4.0,15.0,100,0.00,,---,0.00,VWS V13.00,2013-04-20 12:00:00,
2013-04-20 08:30:00,38.5,38.5,19.99,NW,305,2.0,23.0,100,0.00,,---,0.00,VWS V13.00,2013-04-20 12:30:00,
2013-04-20 09:00:00,38.5,38.5,19.99,WSW,255,11.0,20.0,100,0.00,,---,0.00,VWS V13.00,2013-04-20 13:00:00,
2013-04-20 09:30:00,39.4,39.4,19.99,West,266,3.0,23.0,100,0.00,,---,0.00,VWS V13.00,2013-04-20 13:30:00,
2013-04-20 10:00:00,40.1,40.1,19.99,WSW,258,7.0,23.0,100,0.00,,---,0.00,VWS V13.00,2013-04-20 14:00:00,
2013-04-20 10:30:00,40.7,40.7,20.00,West,268,12.0,28.0,100,0.00,,---,0.00,VWS V13.00,2013-04-20 14:30:00,
2013-04-20 11:00:00,40.3,40.3,19.99,WSW,239,10.0,27.0,100,0.00,,---,0.00,VWS V13.00,2013-04-20 15:00:00,
2013-04-20 11:30:00,41.3,41.3,19.99,West,273,16.0,31.0,100,0.00,,---,0.00,VWS V13.00,2013-04-20 15:30:00,
2013-04-20 12:00:00,41.5,41.5,19.99,West,261,11.0,25.0,100,0.00,,---,0.00,VWS V13.00,2013-04-20 16:00:00,
2013-04-20 12:30:00,40.3,40.3,20.00,WSW,243,13.0,27.0,100,0.00,,---,0.00,VWS V13.00,2013-04-20 16:30:00,
2013-04-20 13:00:00,43.1,43.1,19.99,West,262,11.0,26.0,100,0.00,,---,0.00,VWS V13.00,2013-04-20 17:00:00,
2013-04-20 13:30:00,46.3,46.3,19.99,WNW,283,14.0,27.0,100,0.00,,---,0.00,VWS V13.00,2013-04-20 17:30:00,
2013-04-20 14:00:00,42.3,42.3,19.99,West,264,12.0,27.0,100,0.00,,---,0.00,VWS V13.00,2013-04-20 18:00:00,
2013-04-20 14:30:00,45.1,45.1,19.99,West,271,12.0,27.0,100,0.00,,---,0.00,VWS V13.00,2013-04-20 18:30:00,
2013-04-20 15:00:00,47.1,47.1,20.00,WNW,284,18.0,35.0,100,0.00,,---,0.00,VWS V13.00,2013-04-20 19:00:00,
2013-04-20 15:30:00,45.5,45.5,19.99,West,270,19.0,36.0,100,0.00,,---,0.00,VWS V13.00,2013-04-20 19:30:00,
2013-04-20 16:00:00,44.8,44.8,19.99,WNW,293,16.0,34.0,100,0.00,,---,0.00,VWS V13.00,2013-04-20 20:00:00,
2013-04-20 16:30:00,44.6,44.6,19.99,West,277,25.0,33.0,100,0.00,,---,0.00,VWS V13.00,2013-04-20 20:30:00,
2013-04-20 17:00:00,41.9,41.9,20.00,West,277,20.0,34.0,100,0.00,,---,0.00,VWS V13.00,2013-04-20 21:00:00,
2013-04-20 17:30:00,41.9,41.9,19.99,West,276,17.0,34.0,100,0.00,,---,0.00,VWS V13.00,2013-04-20 21:30:00,
2013-04-20 18:00:00,40.6,40.6,19.99,West,270,19.0,29.0,100,0.00,,---,0.00,VWS V13.00,2013-04-20 22:00:00,
2013-04-20 18:30:00,39.5,39.5,19.99,West,272,15.0,34.0,100,0.00,,---,0.00,VWS V13.00,2013-04-20 22:30:00,
2013-04-20 19:00:00,38.3,38.3,19.99,West,272,16.0,32.0,100,0.00,,---,0.00,VWS V13.00,2013-04-20 23:00:00,
2013-04-20 19:30:00,36.9,36.9,19.99,WNW,288,7.0,36.0,100,0.00,,---,0.00,VWS V13.00,2013-04-20 23:30:00,
2013-04-20 20:00:00,35.6,35.6,20.00,West,267,12.0,29.0,100,0.00,,---,0.00,VWS V13.00,2013-04-21 00:00:00,
2013-04-20 20:30:00,34.6,34.6,19.99,NW,312,7.0,26.0,100,0.00,,---,0.00,VWS V13.00,2013-04-21 00:30:00,
2013-04-20 21:00:00,33.9,33.9,20.00,WSW,252,7.0,28.0,100,0.00,,---,0.00,VWS V13.00,2013-04-21 01:00:00,
2013-04-20 21:30:00,33.0,33.0,19.99,South,182,4.0,27.0,100,0.00,,---,0.00,VWS V13.00,2013-04-21 01:30:00,
2013-04-20 22:00:00,32.0,32.0,19.99,West,277,16.0,25.0,100,0.00,,---,0.00,VWS V13.00,2013-04-21 02:00:00,
2013-04-20 22:30:00,31.3,31.3,19.99,WNW,283,17.0,23.0,100,0.00,,---,0.00,VWS V13.00,2013-04-21 02:30:00,
2013-04-20 23:00:00,31.2,31.2,19.99,West,273,3.0,22.0,100,0.00,,---,0.00,VWS V13.00,2013-04-21 03:00:00,
2013-04-20 23:30:00,30.6,30.6,20.00,WNW,298,8.0,22.0,100,0.00,,---,0.00,VWS V13.00,2013-04-21 03:30:00,